sensor_id;sensor_type;location;lat;lon;timestamp;P1;P2;P0
73241;PMS5003;65659;49.234;-2.094;2023-04-03T00:01:03;5;5;
73241;PMS5003;65659;49.234;-2.094;2023-04-03T00:03:27;5;4;
73241;PMS5003;65659;49.234;-2.094;2023-04-03T00:05:52;4;4;
73241;PMS5003;65659;49.234;-2.094;2023-04-03T00:08:18;6;6;
73241;PMS5003;65659;49.234;-2.094;2023-04-03T00:10:43;6;5;
73241;PMS5003;65659;49.234;-2.094;2023-04-03T00:13:08;7;6;
73241;PMS5003;65659;49.234;-2.094;2023-04-03T00:15:33;6;6;
73241;PMS5003;65659;49.234;-2.094;2023-04-03T00:17:58;5;5;
73241;PMS5003;65659;49.234;-2.094;2023-04-03T00:20:23;5;5;
73241;PMS5003;65659;49.234;-2.094;2023-04-03T00:22:48;9;6;
73241;PMS5003;65659;49.234;-2.094;2023-04-03T00:25:14;3;3;
73241;PMS5003;65659;49.234;-2.094;2023-04-03T00:27:39;6;3;
73241;PMS5003;65659;49.234;-2.094;2023-04-03T00:30:05;5;3;
73241;PMS5003;65659;49.234;-2.094;2023-04-03T00:32:29;4;4;
73241;PMS5003;65659;49.234;-2.094;2023-04-03T00:34:54;6;4;
73241;PMS5003;65659;49.234;-2.094;2023-04-03T00:37:19;7;4;
73241;PMS5003;65659;49.234;-2.094;2023-04-03T00:39:44;3;3;
73241;PMS5003;65659;49.234;-2.094;2023-04-03T00:42:09;4;4;
73241;PMS5003;65659;49.234;-2.094;2023-04-03T00:47:00;3;3;
73241;PMS5003;65659;49.234;-2.094;2023-04-03T00:49:25;9;9;
73241;PMS5003;65659;49.234;-2.094;2023-04-03T00:51:51;5;4;
73241;PMS5003;65659;49.234;-2.094;2023-04-03T00:54:17;7;7;
73241;PMS5003;65659;49.234;-2.094;2023-04-03T00:56:42;3;3;
73241;PMS5003;65659;49.234;-2.094;2023-04-03T00:59:09;6;4;
73241;PMS5003;65659;49.234;-2.094;2023-04-03T01:01:33;6;5;
73241;PMS5003;65659;49.234;-2.094;2023-04-03T01:03:59;4;4;
73241;PMS5003;65659;49.234;-2.094;2023-04-03T01:06:25;3;3;
73241;PMS5003;65659;49.234;-2.094;2023-04-03T01:08:49;4;4;
73241;PMS5003;65659;49.234;-2.094;2023-04-03T01:11:14;4;4;
73241;PMS5003;65659;49.234;-2.094;2023-04-03T01:13:40;4;4;
73241;PMS5003;65659;49.234;-2.094;2023-04-03T01:16:06;3;2;
73241;PMS5003;65659;49.234;-2.094;2023-04-03T01:18:32;6;5;
73241;PMS5003;65659;49.234;-2.094;2023-04-03T01:23:25;5;5;
73241;PMS5003;65659;49.234;-2.094;2023-04-03T01:25:48;3;3;
73241;PMS5003;65659;49.234;-2.094;2023-04-03T01:28:17;4;3;
73241;PMS5003;65659;49.234;-2.094;2023-04-03T01:30:39;4;4;
73241;PMS5003;65659;49.234;-2.094;2023-04-03T01:33:03;5;5;
73241;PMS5003;65659;49.234;-2.094;2023-04-03T01:35:29;4;4;
73241;PMS5003;65659;49.234;-2.094;2023-04-03T01:37:54;5;4;
73241;PMS5003;65659;49.234;-2.094;2023-04-03T01:40:19;4;3;
73241;PMS5003;65659;49.234;-2.094;2023-04-03T01:42:44;4;4;
73241;PMS5003;65659;49.234;-2.094;2023-04-03T01:45:10;4;3;
73241;PMS5003;65659;49.234;-2.094;2023-04-03T01:47:35;5;5;
73241;PMS5003;65659;49.234;-2.094;2023-04-03T01:50:00;4;3;
73241;PMS5003;65659;49.234;-2.094;2023-04-03T01:52:26;5;5;
73241;PMS5003;65659;49.234;-2.094;2023-04-03T01:54:51;3;3;
73241;PMS5003;65659;49.234;-2.094;2023-04-03T01:57:16;4;4;
73241;PMS5003;65659;49.234;-2.094;2023-04-03T01:59:42;5;3;
73241;PMS5003;65659;49.234;-2.094;2023-04-03T02:02:07;2;2;
73241;PMS5003;65659;49.234;-2.094;2023-04-03T02:04:33;7;7;
73241;PMS5003;65659;49.234;-2.094;2023-04-03T02:06:58;3;3;
73241;PMS5003;65659;49.234;-2.094;2023-04-03T02:09:24;3;3;
73241;PMS5003;65659;49.234;-2.094;2023-04-03T02:11:49;1;1;
73241;PMS5003;65659;49.234;-2.094;2023-04-03T02:14:14;5;4;
73241;PMS5003;65659;49.234;-2.094;2023-04-03T02:16:39;3;3;
73241;PMS5003;65659;49.234;-2.094;2023-04-03T02:19:04;3;3;
73241;PMS5003;65659;49.234;-2.094;2023-04-03T02:21:29;3;3;
73241;PMS5003;65659;49.234;-2.094;2023-04-03T02:23:54;5;5;
73241;PMS5003;65659;49.234;-2.094;2023-04-03T02:26:20;4;3;
73241;PMS5003;65659;49.234;-2.094;2023-04-03T02:28:45;2;2;
73241;PMS5003;65659;49.234;-2.094;2023-04-03T02:31:10;3;2;
73241;PMS5003;65659;49.234;-2.094;2023-04-03T02:33:36;6;6;
73241;PMS5003;65659;49.234;-2.094;2023-04-03T02:36:01;3;3;
73241;PMS5003;65659;49.234;-2.094;2023-04-03T02:38:26;2;2;
73241;PMS5003;65659;49.234;-2.094;2023-04-03T02:40:52;7;6;
73241;PMS5003;65659;49.234;-2.094;2023-04-03T02:43:17;4;3;
73241;PMS5003;65659;49.234;-2.094;2023-04-03T02:45:42;3;3;
73241;PMS5003;65659;49.234;-2.094;2023-04-03T02:48:07;3;2;
73241;PMS5003;65659;49.234;-2.094;2023-04-03T02:50:32;2;2;
73241;PMS5003;65659;49.234;-2.094;2023-04-03T02:52:57;3;3;
73241;PMS5003;65659;49.234;-2.094;2023-04-03T02:55:23;7;7;
73241;PMS5003;65659;49.234;-2.094;2023-04-03T02:57:48;2;2;
73241;PMS5003;65659;49.234;-2.094;2023-04-03T03:00:14;2;2;
73241;PMS5003;65659;49.234;-2.094;2023-04-03T03:02:39;5;4;
73241;PMS5003;65659;49.234;-2.094;2023-04-03T03:05:04;2;2;
73241;PMS5003;65659;49.234;-2.094;2023-04-03T03:07:29;4;4;
73241;PMS5003;65659;49.234;-2.094;2023-04-03T03:09:54;2;2;
73241;PMS5003;65659;49.234;-2.094;2023-04-03T03:12:20;3;3;
73241;PMS5003;65659;49.234;-2.094;2023-04-03T03:14:45;5;2;
73241;PMS5003;65659;49.234;-2.094;2023-04-03T03:17:10;4;3;
73241;PMS5003;65659;49.234;-2.094;2023-04-03T03:19:35;4;3;
73241;PMS5003;65659;49.234;-2.094;2023-04-03T03:24:25;2;2;
73241;PMS5003;65659;49.234;-2.094;2023-04-03T03:26:51;4;4;
73241;PMS5003;65659;49.234;-2.094;2023-04-03T03:29:16;4;3;
73241;PMS5003;65659;49.234;-2.094;2023-04-03T03:31:42;3;3;
73241;PMS5003;65659;49.234;-2.094;2023-04-03T03:34:07;2;2;
73241;PMS5003;65659;49.234;-2.094;2023-04-03T03:36:32;4;4;
73241;PMS5003;65659;49.234;-2.094;2023-04-03T03:38:58;2;2;
73241;PMS5003;65659;49.234;-2.094;2023-04-03T03:41:23;3;3;
73241;PMS5003;65659;49.234;-2.094;2023-04-03T03:43:49;2;2;
73241;PMS5003;65659;49.234;-2.094;2023-04-03T03:46:14;3;2;
73241;PMS5003;65659;49.234;-2.094;2023-04-03T03:48:39;1;1;
73241;PMS5003;65659;49.234;-2.094;2023-04-03T03:51:05;2;2;
73241;PMS5003;65659;49.234;-2.094;2023-04-03T03:53:30;4;4;
73241;PMS5003;65659;49.234;-2.094;2023-04-03T03:55:55;2;2;
73241;PMS5003;65659;49.234;-2.094;2023-04-03T03:58:21;2;2;
73241;PMS5003;65659;49.234;-2.094;2023-04-03T04:00:46;3;2;
73241;PMS5003;65659;49.234;-2.094;2023-04-03T04:03:11;4;2;
73241;PMS5003;65659;49.234;-2.094;2023-04-03T04:05:36;6;5;
73241;PMS5003;65659;49.234;-2.094;2023-04-03T04:08:02;1;1;
73241;PMS5003;65659;49.234;-2.094;2023-04-03T04:10:27;5;5;
73241;PMS5003;65659;49.234;-2.094;2023-04-03T04:12:52;3;3;
73241;PMS5003;65659;49.234;-2.094;2023-04-03T04:15:17;1;1;
73241;PMS5003;65659;49.234;-2.094;2023-04-03T04:17:42;3;2;
73241;PMS5003;65659;49.234;-2.094;2023-04-03T04:20:08;2;2;
73241;PMS5003;65659;49.234;-2.094;2023-04-03T04:22:33;3;2;
73241;PMS5003;65659;49.234;-2.094;2023-04-03T04:24:58;3;2;
73241;PMS5003;65659;49.234;-2.094;2023-04-03T04:27:23;3;2;
73241;PMS5003;65659;49.234;-2.094;2023-04-03T04:29:48;3;3;
73241;PMS5003;65659;49.234;-2.094;2023-04-03T04:32:13;1;1;
73241;PMS5003;65659;49.234;-2.094;2023-04-03T04:34:38;2;1;
73241;PMS5003;65659;49.234;-2.094;2023-04-03T04:37:04;4;4;
73241;PMS5003;65659;49.234;-2.094;2023-04-03T04:39:29;3;1;
73241;PMS5003;65659;49.234;-2.094;2023-04-03T04:41:54;3;2;
73241;PMS5003;65659;49.234;-2.094;2023-04-03T04:44:19;2;2;
73241;PMS5003;65659;49.234;-2.094;2023-04-03T04:46:44;1;1;
73241;PMS5003;65659;49.234;-2.094;2023-04-03T04:49:10;3;2;
73241;PMS5003;65659;49.234;-2.094;2023-04-03T04:51:36;2;2;
73241;PMS5003;65659;49.234;-2.094;2023-04-03T04:54:01;1;1;
73241;PMS5003;65659;49.234;-2.094;2023-04-03T04:56:26;3;3;
73241;PMS5003;65659;49.234;-2.094;2023-04-03T04:58:51;1;1;
73241;PMS5003;65659;49.234;-2.094;2023-04-03T05:01:16;2;2;
73241;PMS5003;65659;49.234;-2.094;2023-04-03T05:03:42;2;2;
73241;PMS5003;65659;49.234;-2.094;2023-04-03T05:06:07;3;3;
73241;PMS5003;65659;49.234;-2.094;2023-04-03T05:08:32;1;1;
73241;PMS5003;65659;49.234;-2.094;2023-04-03T05:10:57;0;0;
73241;PMS5003;65659;49.234;-2.094;2023-04-03T05:13:23;3;3;
73241;PMS5003;65659;49.234;-2.094;2023-04-03T05:15:48;4;3;
73241;PMS5003;65659;49.234;-2.094;2023-04-03T05:18:13;2;2;
73241;PMS5003;65659;49.234;-2.094;2023-04-03T05:20:39;3;3;
73241;PMS5003;65659;49.234;-2.094;2023-04-03T05:23:04;2;2;
73241;PMS5003;65659;49.234;-2.094;2023-04-03T05:25:29;5;4;
73241;PMS5003;65659;49.234;-2.094;2023-04-03T05:27:54;3;1;
73241;PMS5003;65659;49.234;-2.094;2023-04-03T05:30:19;2;2;
73241;PMS5003;65659;49.234;-2.094;2023-04-03T05:32:44;3;3;
73241;PMS5003;65659;49.234;-2.094;2023-04-03T05:35:09;2;2;
73241;PMS5003;65659;49.234;-2.094;2023-04-03T05:37:35;3;3;
73241;PMS5003;65659;49.234;-2.094;2023-04-03T05:40:00;7;5;
73241;PMS5003;65659;49.234;-2.094;2023-04-03T05:42:26;6;5;
73241;PMS5003;65659;49.234;-2.094;2023-04-03T05:44:51;3;3;
73241;PMS5003;65659;49.234;-2.094;2023-04-03T05:47:16;6;6;
73241;PMS5003;65659;49.234;-2.094;2023-04-03T05:49:42;5;5;
73241;PMS5003;65659;49.234;-2.094;2023-04-03T05:52:09;6;6;
73241;PMS5003;65659;49.234;-2.094;2023-04-03T05:54:32;7;7;
73241;PMS5003;65659;49.234;-2.094;2023-04-03T05:56:57;8;8;
73241;PMS5003;65659;49.234;-2.094;2023-04-03T05:59:22;11;11;
73241;PMS5003;65659;49.234;-2.094;2023-04-03T06:01:47;7;7;
73241;PMS5003;65659;49.234;-2.094;2023-04-03T06:04:13;9;8;
73241;PMS5003;65659;49.234;-2.094;2023-04-03T06:06:44;9;9;
73241;PMS5003;65659;49.234;-2.094;2023-04-03T06:09:03;9;9;
73241;PMS5003;65659;49.234;-2.094;2023-04-03T06:11:29;9;8;
73241;PMS5003;65659;49.234;-2.094;2023-04-03T06:13:54;10;9;
73241;PMS5003;65659;49.234;-2.094;2023-04-03T06:16:19;9;9;
73241;PMS5003;65659;49.234;-2.094;2023-04-03T06:18:44;7;7;
73241;PMS5003;65659;49.234;-2.094;2023-04-03T06:21:09;8;8;
73241;PMS5003;65659;49.234;-2.094;2023-04-03T06:23:34;7;7;
73241;PMS5003;65659;49.234;-2.094;2023-04-03T06:26:00;9;9;
73241;PMS5003;65659;49.234;-2.094;2023-04-03T06:28:25;10;9;
73241;PMS5003;65659;49.234;-2.094;2023-04-03T06:33:15;8;8;
73241;PMS5003;65659;49.234;-2.094;2023-04-03T06:35:40;10;9;
73241;PMS5003;65659;49.234;-2.094;2023-04-03T06:38:06;9;9;
73241;PMS5003;65659;49.234;-2.094;2023-04-03T06:40:31;10;9;
73241;PMS5003;65659;49.234;-2.094;2023-04-03T06:42:57;12;12;
73241;PMS5003;65659;49.234;-2.094;2023-04-03T06:45:22;10;9;
73241;PMS5003;65659;49.234;-2.094;2023-04-03T06:47:47;8;8;
73241;PMS5003;65659;49.234;-2.094;2023-04-03T06:50:12;10;9;
73241;PMS5003;65659;49.234;-2.094;2023-04-03T06:52:37;11;11;
73241;PMS5003;65659;49.234;-2.094;2023-04-03T06:55:03;14;14;
73241;PMS5003;65659;49.234;-2.094;2023-04-03T06:57:30;10;10;
73241;PMS5003;65659;49.234;-2.094;2023-04-03T06:59:53;9;9;
73241;PMS5003;65659;49.234;-2.094;2023-04-03T07:02:19;11;11;
73241;PMS5003;65659;49.234;-2.094;2023-04-03T07:04:44;17;17;
73241;PMS5003;65659;49.234;-2.094;2023-04-03T07:07:09;12;12;
73241;PMS5003;65659;49.234;-2.094;2023-04-03T07:09:35;10;9;
73241;PMS5003;65659;49.234;-2.094;2023-04-03T07:12:00;15;15;
73241;PMS5003;65659;49.234;-2.094;2023-04-03T07:14:25;11;11;
73241;PMS5003;65659;49.234;-2.094;2023-04-03T07:16:51;14;14;
73241;PMS5003;65659;49.234;-2.094;2023-04-03T07:19:16;12;12;
73241;PMS5003;65659;49.234;-2.094;2023-04-03T07:21:42;13;13;
73241;PMS5003;65659;49.234;-2.094;2023-04-03T07:24:07;11;11;
73241;PMS5003;65659;49.234;-2.094;2023-04-03T07:26:33;15;13;
73241;PMS5003;65659;49.234;-2.094;2023-04-03T07:28:58;13;12;
73241;PMS5003;65659;49.234;-2.094;2023-04-03T07:31:24;12;11;
73241;PMS5003;65659;49.234;-2.094;2023-04-03T07:33:50;17;16;
73241;PMS5003;65659;49.234;-2.094;2023-04-03T07:36:16;14;14;
73241;PMS5003;65659;49.234;-2.094;2023-04-03T07:38:41;13;13;
73241;PMS5003;65659;49.234;-2.094;2023-04-03T07:41:06;16;16;
73241;PMS5003;65659;49.234;-2.094;2023-04-03T07:43:32;15;15;
73241;PMS5003;65659;49.234;-2.094;2023-04-03T07:45:57;13;13;
73241;PMS5003;65659;49.234;-2.094;2023-04-03T07:48:24;12;12;
73241;PMS5003;65659;49.234;-2.094;2023-04-03T07:50:48;18;18;
73241;PMS5003;65659;49.234;-2.094;2023-04-03T07:53:14;18;17;
73241;PMS5003;65659;49.234;-2.094;2023-04-03T07:58:07;17;17;
73241;PMS5003;65659;49.234;-2.094;2023-04-03T08:00:32;12;12;
73241;PMS5003;65659;49.234;-2.094;2023-04-03T08:02:55;14;14;
73241;PMS5003;65659;49.234;-2.094;2023-04-03T08:05:21;14;13;
73241;PMS5003;65659;49.234;-2.094;2023-04-03T08:07:46;16;16;
73241;PMS5003;65659;49.234;-2.094;2023-04-03T08:10:12;18;18;
73241;PMS5003;65659;49.234;-2.094;2023-04-03T08:12:37;14;14;
73241;PMS5003;65659;49.234;-2.094;2023-04-03T08:15:02;13;13;
73241;PMS5003;65659;49.234;-2.094;2023-04-03T08:17:27;13;13;
73241;PMS5003;65659;49.234;-2.094;2023-04-03T08:19:53;14;14;
73241;PMS5003;65659;49.234;-2.094;2023-04-03T08:22:18;15;15;
73241;PMS5003;65659;49.234;-2.094;2023-04-03T08:27:08;15;15;
73241;PMS5003;65659;49.234;-2.094;2023-04-03T08:29:35;14;13;
73241;PMS5003;65659;49.234;-2.094;2023-04-03T08:32:00;20;19;
73241;PMS5003;65659;49.234;-2.094;2023-04-03T08:34:25;19;18;
73241;PMS5003;65659;49.234;-2.094;2023-04-03T08:36:51;20;19;
73241;PMS5003;65659;49.234;-2.094;2023-04-03T08:39:16;19;19;
73241;PMS5003;65659;49.234;-2.094;2023-04-03T08:41:42;19;18;
73241;PMS5003;65659;49.234;-2.094;2023-04-03T08:44:14;17;17;
73241;PMS5003;65659;49.234;-2.094;2023-04-03T08:46:35;19;18;
73241;PMS5003;65659;49.234;-2.094;2023-04-03T08:48:58;19;18;
73241;PMS5003;65659;49.234;-2.094;2023-04-03T08:51:23;15;15;
73241;PMS5003;65659;49.234;-2.094;2023-04-03T08:53:51;16;16;
73241;PMS5003;65659;49.234;-2.094;2023-04-03T08:56:14;21;20;
73241;PMS5003;65659;49.234;-2.094;2023-04-03T08:58:41;15;15;
73241;PMS5003;65659;49.234;-2.094;2023-04-03T09:01:05;28;26;
73241;PMS5003;65659;49.234;-2.094;2023-04-03T09:03:30;18;18;
73241;PMS5003;65659;49.234;-2.094;2023-04-03T09:05:55;19;18;
73241;PMS5003;65659;49.234;-2.094;2023-04-03T09:08:30;18;17;
73241;PMS5003;65659;49.234;-2.094;2023-04-03T09:10:46;21;21;
73241;PMS5003;65659;49.234;-2.094;2023-04-03T09:13:13;21;20;
73241;PMS5003;65659;49.234;-2.094;2023-04-03T09:15:42;37;37;
73241;PMS5003;65659;49.234;-2.094;2023-04-03T09:20:33;21;20;
73241;PMS5003;65659;49.234;-2.094;2023-04-03T09:22:53;25;25;
73241;PMS5003;65659;49.234;-2.094;2023-04-03T09:25:29;27;26;
73241;PMS5003;65659;49.234;-2.094;2023-04-03T09:27:48;21;21;
73241;PMS5003;65659;49.234;-2.094;2023-04-03T09:30:13;22;21;
73241;PMS5003;65659;49.234;-2.094;2023-04-03T09:32:40;24;23;
73241;PMS5003;65659;49.234;-2.094;2023-04-03T09:35:03;22;22;
73241;PMS5003;65659;49.234;-2.094;2023-04-03T09:39:52;16;16;
73241;PMS5003;65659;49.234;-2.094;2023-04-03T09:44:42;23;23;
73241;PMS5003;65659;49.234;-2.094;2023-04-03T09:49:32;15;15;
73241;PMS5003;65659;49.234;-2.094;2023-04-03T09:51:58;19;18;
73241;PMS5003;65659;49.234;-2.094;2023-04-03T09:54:26;23;23;
73241;PMS5003;65659;49.234;-2.094;2023-04-03T09:56:50;21;21;
73241;PMS5003;65659;49.234;-2.094;2023-04-03T09:59:17;26;25;
73241;PMS5003;65659;49.234;-2.094;2023-04-03T10:01:41;28;27;
73241;PMS5003;65659;49.234;-2.094;2023-04-03T10:04:14;25;25;
73241;PMS5003;65659;49.234;-2.094;2023-04-03T10:06:34;27;26;
73241;PMS5003;65659;49.234;-2.094;2023-04-03T10:08:59;30;29;
73241;PMS5003;65659;49.234;-2.094;2023-04-03T10:11:20;26;25;
73241;PMS5003;65659;49.234;-2.094;2023-04-03T10:13:50;24;23;
73241;PMS5003;65659;49.234;-2.094;2023-04-03T10:16:12;18;18;
73241;PMS5003;65659;49.234;-2.094;2023-04-03T10:18:40;23;23;
73241;PMS5003;65659;49.234;-2.094;2023-04-03T10:21:06;18;18;
73241;PMS5003;65659;49.234;-2.094;2023-04-03T10:23:36;22;21;
73241;PMS5003;65659;49.234;-2.094;2023-04-03T10:25:59;20;20;
73241;PMS5003;65659;49.234;-2.094;2023-04-03T10:28:24;25;24;
73241;PMS5003;65659;49.234;-2.094;2023-04-03T10:30:48;22;21;
73241;PMS5003;65659;49.234;-2.094;2023-04-03T10:33:17;23;23;
73241;PMS5003;65659;49.234;-2.094;2023-04-03T10:35:39;22;21;
73241;PMS5003;65659;49.234;-2.094;2023-04-03T10:38:03;24;24;
73241;PMS5003;65659;49.234;-2.094;2023-04-03T10:40:33;26;26;
73241;PMS5003;65659;49.234;-2.094;2023-04-03T10:42:53;24;24;
73241;PMS5003;65659;49.234;-2.094;2023-04-03T10:45:28;24;24;
73241;PMS5003;65659;49.234;-2.094;2023-04-03T10:47:46;25;24;
73241;PMS5003;65659;49.234;-2.094;2023-04-03T10:50:20;28;28;
73241;PMS5003;65659;49.234;-2.094;2023-04-03T10:52:36;26;24;
73241;PMS5003;65659;49.234;-2.094;2023-04-03T10:55:04;25;24;
73241;PMS5003;65659;49.234;-2.094;2023-04-03T10:57:25;25;24;
73241;PMS5003;65659;49.234;-2.094;2023-04-03T10:59:55;23;23;
73241;PMS5003;65659;49.234;-2.094;2023-04-03T11:02:17;24;24;
73241;PMS5003;65659;49.234;-2.094;2023-04-03T11:04:42;23;21;
73241;PMS5003;65659;49.234;-2.094;2023-04-03T11:07:08;25;25;
73241;PMS5003;65659;49.234;-2.094;2023-04-03T11:09:33;45;43;
73241;PMS5003;65659;49.234;-2.094;2023-04-03T11:11:58;28;28;
73241;PMS5003;65659;49.234;-2.094;2023-04-03T11:14:26;23;23;
73241;PMS5003;65659;49.234;-2.094;2023-04-03T11:16:50;22;22;
73241;PMS5003;65659;49.234;-2.094;2023-04-03T11:19:17;24;23;
73241;PMS5003;65659;49.234;-2.094;2023-04-03T11:21:40;25;25;
73241;PMS5003;65659;49.234;-2.094;2023-04-03T11:24:05;19;19;
73241;PMS5003;65659;49.234;-2.094;2023-04-03T11:26:31;24;23;
73241;PMS5003;65659;49.234;-2.094;2023-04-03T11:28:57;23;23;
73241;PMS5003;65659;49.234;-2.094;2023-04-03T11:31:26;20;20;
73241;PMS5003;65659;49.234;-2.094;2023-04-03T11:33:48;19;19;
73241;PMS5003;65659;49.234;-2.094;2023-04-03T11:36:18;22;22;
73241;PMS5003;65659;49.234;-2.094;2023-04-03T11:38:41;16;16;
73241;PMS5003;65659;49.234;-2.094;2023-04-03T11:41:04;21;20;
73241;PMS5003;65659;49.234;-2.094;2023-04-03T11:43:29;21;21;
73241;PMS5003;65659;49.234;-2.094;2023-04-03T11:45:55;15;15;
73241;PMS5003;65659;49.234;-2.094;2023-04-03T11:50:48;21;21;
73241;PMS5003;65659;49.234;-2.094;2023-04-03T11:55:43;18;18;
73241;PMS5003;65659;49.234;-2.094;2023-04-03T12:02:53;18;18;
73241;PMS5003;65659;49.234;-2.094;2023-04-03T12:05:27;18;18;
73241;PMS5003;65659;49.234;-2.094;2023-04-03T12:07:43;15;15;
73241;PMS5003;65659;49.234;-2.094;2023-04-03T12:10:14;17;17;
73241;PMS5003;65659;49.234;-2.094;2023-04-03T12:12:37;13;13;
73241;PMS5003;65659;49.234;-2.094;2023-04-03T12:17:26;15;13;
73241;PMS5003;65659;49.234;-2.094;2023-04-03T12:19:50;26;26;
73241;PMS5003;65659;49.234;-2.094;2023-04-03T12:22:17;18;18;
73241;PMS5003;65659;49.234;-2.094;2023-04-03T12:24:41;14;14;
73241;PMS5003;65659;49.234;-2.094;2023-04-03T12:29:33;19;19;
73241;PMS5003;65659;49.234;-2.094;2023-04-03T12:32:03;21;20;
73241;PMS5003;65659;49.234;-2.094;2023-04-03T12:34:26;15;14;
73241;PMS5003;65659;49.234;-2.094;2023-04-03T12:36:50;15;15;
73241;PMS5003;65659;49.234;-2.094;2023-04-03T12:39:31;16;15;
73241;PMS5003;65659;49.234;-2.094;2023-04-03T12:41:42;13;12;
73241;PMS5003;65659;49.234;-2.094;2023-04-03T12:46:34;12;12;
73241;PMS5003;65659;49.234;-2.094;2023-04-03T12:48:56;16;15;
73241;PMS5003;65659;49.234;-2.094;2023-04-03T12:51:25;15;15;
73241;PMS5003;65659;49.234;-2.094;2023-04-03T12:53:48;15;15;
73241;PMS5003;65659;49.234;-2.094;2023-04-03T12:56:20;16;16;
73241;PMS5003;65659;49.234;-2.094;2023-04-03T12:58:39;14;13;
73241;PMS5003;65659;49.234;-2.094;2023-04-03T13:01:09;14;13;
73241;PMS5003;65659;49.234;-2.094;2023-04-03T13:03:30;12;12;
73241;PMS5003;65659;49.234;-2.094;2023-04-03T13:05:57;12;12;
73241;PMS5003;65659;49.234;-2.094;2023-04-03T13:08:23;12;12;
73241;PMS5003;65659;49.234;-2.094;2023-04-03T13:10:50;14;14;
73241;PMS5003;65659;49.234;-2.094;2023-04-03T13:13:13;12;12;
73241;PMS5003;65659;49.234;-2.094;2023-04-03T13:15:40;11;11;
73241;PMS5003;65659;49.234;-2.094;2023-04-03T13:18:05;11;11;
73241;PMS5003;65659;49.234;-2.094;2023-04-03T13:20:31;13;12;
73241;PMS5003;65659;49.234;-2.094;2023-04-03T13:22:57;12;11;
73241;PMS5003;65659;49.234;-2.094;2023-04-03T13:25:22;7;7;
73241;PMS5003;65659;49.234;-2.094;2023-04-03T13:27:46;6;6;
73241;PMS5003;65659;49.234;-2.094;2023-04-03T13:32:38;5;4;
73241;PMS5003;65659;49.234;-2.094;2023-04-03T13:37:30;7;7;
73241;PMS5003;65659;49.234;-2.094;2023-04-03T13:40:00;4;4;
73241;PMS5003;65659;49.234;-2.094;2023-04-03T13:42:23;5;5;
73241;PMS5003;65659;49.234;-2.094;2023-04-03T13:47:19;5;5;
73241;PMS5003;65659;49.234;-2.094;2023-04-03T13:49:39;4;4;
73241;PMS5003;65659;49.234;-2.094;2023-04-03T13:54:32;3;3;
73241;PMS5003;65659;49.234;-2.094;2023-04-03T13:56:57;4;4;
73241;PMS5003;65659;49.234;-2.094;2023-04-03T13:59:22;5;5;
73241;PMS5003;65659;49.234;-2.094;2023-04-03T14:01:48;5;5;
73241;PMS5003;65659;49.234;-2.094;2023-04-03T14:04:15;6;6;
73241;PMS5003;65659;49.234;-2.094;2023-04-03T14:06:39;6;5;
73241;PMS5003;65659;49.234;-2.094;2023-04-03T14:09:05;6;6;
73241;PMS5003;65659;49.234;-2.094;2023-04-03T14:11:30;6;6;
73241;PMS5003;65659;49.234;-2.094;2023-04-03T14:13:57;5;5;
73241;PMS5003;65659;49.234;-2.094;2023-04-03T14:16:23;6;6;
73241;PMS5003;65659;49.234;-2.094;2023-04-03T14:18:48;4;4;
73241;PMS5003;65659;49.234;-2.094;2023-04-03T14:21:14;5;5;
73241;PMS5003;65659;49.234;-2.094;2023-04-03T14:23:39;9;8;
73241;PMS5003;65659;49.234;-2.094;2023-04-03T14:26:08;7;6;
73241;PMS5003;65659;49.234;-2.094;2023-04-03T14:28:31;7;6;
73241;PMS5003;65659;49.234;-2.094;2023-04-03T14:30:57;7;7;
73241;PMS5003;65659;49.234;-2.094;2023-04-03T14:33:22;12;12;
73241;PMS5003;65659;49.234;-2.094;2023-04-03T14:35:47;4;4;
73241;PMS5003;65659;49.234;-2.094;2023-04-03T14:38:20;6;6;
73241;PMS5003;65659;49.234;-2.094;2023-04-03T14:40:38;5;5;
73241;PMS5003;65659;49.234;-2.094;2023-04-03T14:43:08;8;6;
73241;PMS5003;65659;49.234;-2.094;2023-04-03T14:45:30;5;5;
73241;PMS5003;65659;49.234;-2.094;2023-04-03T14:47:56;5;5;
73241;PMS5003;65659;49.234;-2.094;2023-04-03T14:50:23;6;5;
73241;PMS5003;65659;49.234;-2.094;2023-04-03T14:52:48;5;4;
73241;PMS5003;65659;49.234;-2.094;2023-04-03T14:55:14;5;5;
73241;PMS5003;65659;49.234;-2.094;2023-04-03T14:57:39;5;5;
73241;PMS5003;65659;49.234;-2.094;2023-04-03T15:00:06;7;7;
73241;PMS5003;65659;49.234;-2.094;2023-04-03T15:02:31;5;5;
73241;PMS5003;65659;49.234;-2.094;2023-04-03T15:04:56;6;6;
73241;PMS5003;65659;49.234;-2.094;2023-04-03T15:07:22;12;12;
73241;PMS5003;65659;49.234;-2.094;2023-04-03T15:09:47;7;7;
73241;PMS5003;65659;49.234;-2.094;2023-04-03T15:12:13;9;9;
73241;PMS5003;65659;49.234;-2.094;2023-04-03T15:14:39;10;10;
73241;PMS5003;65659;49.234;-2.094;2023-04-03T15:17:05;8;7;
73241;PMS5003;65659;49.234;-2.094;2023-04-03T15:19:30;10;9;
73241;PMS5003;65659;49.234;-2.094;2023-04-03T15:21:56;10;10;
73241;PMS5003;65659;49.234;-2.094;2023-04-03T15:24:22;9;9;
73241;PMS5003;65659;49.234;-2.094;2023-04-03T15:26:47;11;10;
73241;PMS5003;65659;49.234;-2.094;2023-04-03T15:29:13;10;9;
73241;PMS5003;65659;49.234;-2.094;2023-04-03T15:31:38;10;9;
73241;PMS5003;65659;49.234;-2.094;2023-04-03T15:34:04;9;9;
73241;PMS5003;65659;49.234;-2.094;2023-04-03T15:36:30;10;9;
73241;PMS5003;65659;49.234;-2.094;2023-04-03T15:38:56;11;10;
73241;PMS5003;65659;49.234;-2.094;2023-04-03T15:41:22;8;8;
73241;PMS5003;65659;49.234;-2.094;2023-04-03T15:43:47;10;10;
73241;PMS5003;65659;49.234;-2.094;2023-04-03T15:46:13;10;9;
73241;PMS5003;65659;49.234;-2.094;2023-04-03T15:48:39;11;11;
73241;PMS5003;65659;49.234;-2.094;2023-04-03T15:51:05;14;14;
73241;PMS5003;65659;49.234;-2.094;2023-04-03T15:53:30;16;16;
73241;PMS5003;65659;49.234;-2.094;2023-04-03T15:55:56;17;15;
73241;PMS5003;65659;49.234;-2.094;2023-04-03T15:58:21;11;10;
73241;PMS5003;65659;49.234;-2.094;2023-04-03T16:00:47;13;13;
73241;PMS5003;65659;49.234;-2.094;2023-04-03T16:03:15;13;13;
73241;PMS5003;65659;49.234;-2.094;2023-04-03T16:05:39;16;14;
73241;PMS5003;65659;49.234;-2.094;2023-04-03T16:08:05;14;14;
73241;PMS5003;65659;49.234;-2.094;2023-04-03T16:10:30;15;15;
73241;PMS5003;65659;49.234;-2.094;2023-04-03T16:12:56;14;14;
73241;PMS5003;65659;49.234;-2.094;2023-04-03T16:15:22;16;16;
73241;PMS5003;65659;49.234;-2.094;2023-04-03T16:17:47;18;18;
73241;PMS5003;65659;49.234;-2.094;2023-04-03T16:20:12;15;15;
73241;PMS5003;65659;49.234;-2.094;2023-04-03T16:22:38;16;16;
73241;PMS5003;65659;49.234;-2.094;2023-04-03T16:25:04;25;25;
73241;PMS5003;65659;49.234;-2.094;2023-04-03T16:27:28;16;16;
73241;PMS5003;65659;49.234;-2.094;2023-04-03T16:29:54;19;18;
73241;PMS5003;65659;49.234;-2.094;2023-04-03T16:32:20;22;22;
73241;PMS5003;65659;49.234;-2.094;2023-04-03T16:34:45;21;21;
73241;PMS5003;65659;49.234;-2.094;2023-04-03T16:37:10;18;18;
73241;PMS5003;65659;49.234;-2.094;2023-04-03T16:39:36;20;20;
73241;PMS5003;65659;49.234;-2.094;2023-04-03T16:42:02;20;20;
73241;PMS5003;65659;49.234;-2.094;2023-04-03T16:44:28;21;21;
73241;PMS5003;65659;49.234;-2.094;2023-04-03T16:46:53;19;19;
73241;PMS5003;65659;49.234;-2.094;2023-04-03T16:49:18;17;17;
73241;PMS5003;65659;49.234;-2.094;2023-04-03T16:51:44;21;21;
73241;PMS5003;65659;49.234;-2.094;2023-04-03T16:54:10;19;18;
73241;PMS5003;65659;49.234;-2.094;2023-04-03T16:56:35;17;17;